sensor_id;sensor_type;location;lat;lon;timestamp;temperature;humidity
45945;DHT22;31655;48.972;10.686;2023-12-07T00:00:32;0.30;99.90
45945;DHT22;31655;48.972;10.686;2023-12-07T00:02:58;0.20;99.90
45945;DHT22;31655;48.972;10.686;2023-12-07T00:05:25;0.20;99.90
45945;DHT22;31655;48.972;10.686;2023-12-07T00:07:50;0.20;99.90
45945;DHT22;31655;48.972;10.686;2023-12-07T00:10:16;0.20;99.90
45945;DHT22;31655;48.972;10.686;2023-12-07T00:12:41;0.20;99.90
45945;DHT22;31655;48.972;10.686;2023-12-07T00:15:07;0.20;99.90
45945;DHT22;31655;48.972;10.686;2023-12-07T00:17:33;0.20;99.90
45945;DHT22;31655;48.972;10.686;2023-12-07T00:19:59;0.20;99.90
45945;DHT22;31655;48.972;10.686;2023-12-07T00:22:25;0.20;99.90
45945;DHT22;31655;48.972;10.686;2023-12-07T00:24:52;0.20;99.90
45945;DHT22;31655;48.972;10.686;2023-12-07T00:27:20;0.20;99.90
45945;DHT22;31655;48.972;10.686;2023-12-07T00:29:47;0.30;99.90
45945;DHT22;31655;48.972;10.686;2023-12-07T00:32:12;0.30;99.90
45945;DHT22;31655;48.972;10.686;2023-12-07T00:34:38;0.20;99.90
45945;DHT22;31655;48.972;10.686;2023-12-07T00:37:06;0.20;99.90
45945;DHT22;31655;48.972;10.686;2023-12-07T00:39:35;0.20;99.90
45945;DHT22;31655;48.972;10.686;2023-12-07T00:42:01;0.20;99.90
45945;DHT22;31655;48.972;10.686;2023-12-07T00:44:28;0.20;99.90
45945;DHT22;31655;48.972;10.686;2023-12-07T00:46:55;1.30;99.90
45945;DHT22;31655;48.972;10.686;2023-12-07T00:49:20;0.20;99.90
45945;DHT22;31655;48.972;10.686;2023-12-07T00:51:46;0.20;99.90
45945;DHT22;31655;48.972;10.686;2023-12-07T00:54:12;0.20;99.90
45945;DHT22;31655;48.972;10.686;2023-12-07T00:56:38;0.20;99.90
45945;DHT22;31655;48.972;10.686;2023-12-07T00:59:04;0.20;99.90
45945;DHT22;31655;48.972;10.686;2023-12-07T01:01:29;0.20;99.90
45945;DHT22;31655;48.972;10.686;2023-12-07T01:03:55;0.20;99.90
45945;DHT22;31655;48.972;10.686;2023-12-07T01:06:20;0.30;99.90
45945;DHT22;31655;48.972;10.686;2023-12-07T01:08:46;0.30;99.90
45945;DHT22;31655;48.972;10.686;2023-12-07T01:11:12;0.30;99.90
45945;DHT22;31655;48.972;10.686;2023-12-07T01:13:37;0.00;99.90
45945;DHT22;31655;48.972;10.686;2023-12-07T01:16:03;0.30;99.90
45945;DHT22;31655;48.972;10.686;2023-12-07T01:18:28;0.30;99.90
45945;DHT22;31655;48.972;10.686;2023-12-07T01:20:54;0.30;99.90
45945;DHT22;31655;48.972;10.686;2023-12-07T01:23:19;0.30;99.90
45945;DHT22;31655;48.972;10.686;2023-12-07T01:25:45;0.30;99.90
45945;DHT22;31655;48.972;10.686;2023-12-07T01:28:11;0.20;99.90
45945;DHT22;31655;48.972;10.686;2023-12-07T01:30:36;0.30;99.90
45945;DHT22;31655;48.972;10.686;2023-12-07T01:33:02;0.30;99.90
45945;DHT22;31655;48.972;10.686;2023-12-07T01:35:27;0.20;99.90
45945;DHT22;31655;48.972;10.686;2023-12-07T01:37:54;0.20;99.90
45945;DHT22;31655;48.972;10.686;2023-12-07T01:40:19;0.20;99.90
45945;DHT22;31655;48.972;10.686;2023-12-07T01:43:00;0.20;99.90
45945;DHT22;31655;48.972;10.686;2023-12-07T01:45:25;0.20;99.90
45945;DHT22;31655;48.972;10.686;2023-12-07T01:47:52;0.20;99.90
45945;DHT22;31655;48.972;10.686;2023-12-07T01:50:26;0.20;99.90
45945;DHT22;31655;48.972;10.686;2023-12-07T01:53:01;0.20;99.90
45945;DHT22;31655;48.972;10.686;2023-12-07T01:55:27;0.20;99.90
45945;DHT22;31655;48.972;10.686;2023-12-07T01:57:53;0.20;99.90
45945;DHT22;31655;48.972;10.686;2023-12-07T02:00:19;0.20;99.90
45945;DHT22;31655;48.972;10.686;2023-12-07T02:02:46;0.20;99.90
45945;DHT22;31655;48.972;10.686;2023-12-07T02:05:13;0.20;99.90
45945;DHT22;31655;48.972;10.686;2023-12-07T02:07:41;0.30;99.90
45945;DHT22;31655;48.972;10.686;2023-12-07T02:10:10;0.40;99.90
45945;DHT22;31655;48.972;10.686;2023-12-07T02:12:36;0.30;99.90
45945;DHT22;31655;48.972;10.686;2023-12-07T02:15:03;0.30;99.90
45945;DHT22;31655;48.972;10.686;2023-12-07T02:22:42;0.40;99.90
45945;DHT22;31655;48.972;10.686;2023-12-07T02:25:10;0.30;99.90
45945;DHT22;31655;48.972;10.686;2023-12-07T02:27:43;0.30;99.90
45945;DHT22;31655;48.972;10.686;2023-12-07T02:30:11;0.30;99.90
45945;DHT22;31655;48.972;10.686;2023-12-07T02:32:39;0.30;99.90
45945;DHT22;31655;48.972;10.686;2023-12-07T02:35:05;0.20;99.90
45945;DHT22;31655;48.972;10.686;2023-12-07T02:37:35;0.20;99.90
45945;DHT22;31655;48.972;10.686;2023-12-07T02:40:04;0.20;99.90
45945;DHT22;31655;48.972;10.686;2023-12-07T02:42:31;0.10;99.90
45945;DHT22;31655;48.972;10.686;2023-12-07T02:44:59;0.10;99.90
45945;DHT22;31655;48.972;10.686;2023-12-07T02:47:25;0.10;99.90
45945;DHT22;31655;48.972;10.686;2023-12-07T02:49:51;0.10;99.90
45945;DHT22;31655;48.972;10.686;2023-12-07T02:52:16;0.10;99.90
45945;DHT22;31655;48.972;10.686;2023-12-07T02:54:42;0.10;99.90
45945;DHT22;31655;48.972;10.686;2023-12-07T02:57:08;0.10;99.90
45945;DHT22;31655;48.972;10.686;2023-12-07T02:59:33;0.10;99.90
45945;DHT22;31655;48.972;10.686;2023-12-07T03:01:59;0.10;99.90
45945;DHT22;31655;48.972;10.686;2023-12-07T03:04:24;1.60;99.90
45945;DHT22;31655;48.972;10.686;2023-12-07T03:06:50;0.10;99.90
45945;DHT22;31655;48.972;10.686;2023-12-07T03:09:16;0.20;99.90
45945;DHT22;31655;48.972;10.686;2023-12-07T03:11:43;0.20;99.90
45945;DHT22;31655;48.972;10.686;2023-12-07T03:14:08;0.20;99.90
45945;DHT22;31655;48.972;10.686;2023-12-07T03:16:36;0.30;99.90
45945;DHT22;31655;48.972;10.686;2023-12-07T03:19:04;0.20;99.90
45945;DHT22;31655;48.972;10.686;2023-12-07T03:21:29;0.20;99.90
45945;DHT22;31655;48.972;10.686;2023-12-07T03:23:55;0.20;99.90
45945;DHT22;31655;48.972;10.686;2023-12-07T03:26:20;0.20;99.90
45945;DHT22;31655;48.972;10.686;2023-12-07T03:28:46;0.10;99.90
45945;DHT22;31655;48.972;10.686;2023-12-07T03:31:11;0.10;99.90
45945;DHT22;31655;48.972;10.686;2023-12-07T03:33:37;0.10;99.90
45945;DHT22;31655;48.972;10.686;2023-12-07T03:36:04;0.10;99.90
45945;DHT22;31655;48.972;10.686;2023-12-07T03:38:30;0.10;99.90
45945;DHT22;31655;48.972;10.686;2023-12-07T03:40:55;0.10;99.90
45945;DHT22;31655;48.972;10.686;2023-12-07T03:43:21;0.10;99.90
45945;DHT22;31655;48.972;10.686;2023-12-07T03:45:47;0.10;99.90
45945;DHT22;31655;48.972;10.686;2023-12-07T03:48:13;0.20;99.90
45945;DHT22;31655;48.972;10.686;2023-12-07T03:50:38;0.10;99.90
45945;DHT22;31655;48.972;10.686;2023-12-07T03:53:04;0.10;99.90
45945;DHT22;31655;48.972;10.686;2023-12-07T03:55:30;0.20;99.90
45945;DHT22;31655;48.972;10.686;2023-12-07T03:57:56;0.20;99.90
45945;DHT22;31655;48.972;10.686;2023-12-07T04:00:22;0.20;99.90
45945;DHT22;31655;48.972;10.686;2023-12-07T04:02:47;0.20;99.90
45945;DHT22;31655;48.972;10.686;2023-12-07T04:05:13;0.20;99.90
45945;DHT22;31655;48.972;10.686;2023-12-07T04:07:40;0.20;99.90
45945;DHT22;31655;48.972;10.686;2023-12-07T04:10:05;0.20;99.90
45945;DHT22;31655;48.972;10.686;2023-12-07T04:12:32;0.30;99.90
45945;DHT22;31655;48.972;10.686;2023-12-07T04:14:57;0.30;99.90
45945;DHT22;31655;48.972;10.686;2023-12-07T04:17:23;0.30;99.90
45945;DHT22;31655;48.972;10.686;2023-12-07T04:19:48;0.40;99.90
45945;DHT22;31655;48.972;10.686;2023-12-07T04:22:14;0.40;99.90
45945;DHT22;31655;48.972;10.686;2023-12-07T04:24:39;0.50;99.90
45945;DHT22;31655;48.972;10.686;2023-12-07T04:27:05;0.50;99.90
45945;DHT22;31655;48.972;10.686;2023-12-07T04:29:31;0.50;99.90
45945;DHT22;31655;48.972;10.686;2023-12-07T04:31:57;0.50;99.90
45945;DHT22;31655;48.972;10.686;2023-12-07T04:34:22;0.50;99.90
45945;DHT22;31655;48.972;10.686;2023-12-07T04:36:49;0.50;99.90
45945;DHT22;31655;48.972;10.686;2023-12-07T04:39:15;0.50;99.90
45945;DHT22;31655;48.972;10.686;2023-12-07T04:41:40;0.50;99.90
45945;DHT22;31655;48.972;10.686;2023-12-07T04:44:06;0.50;99.90
45945;DHT22;31655;48.972;10.686;2023-12-07T04:46:32;0.40;99.90
45945;DHT22;31655;48.972;10.686;2023-12-07T04:48:57;0.50;99.90
45945;DHT22;31655;48.972;10.686;2023-12-07T04:51:23;0.40;99.90
45945;DHT22;31655;48.972;10.686;2023-12-07T04:53:49;0.40;99.90
45945;DHT22;31655;48.972;10.686;2023-12-07T04:56:14;0.40;99.90
45945;DHT22;31655;48.972;10.686;2023-12-07T04:58:40;0.40;99.90
45945;DHT22;31655;48.972;10.686;2023-12-07T05:01:05;0.40;99.90
45945;DHT22;31655;48.972;10.686;2023-12-07T05:03:32;0.40;99.90
45945;DHT22;31655;48.972;10.686;2023-12-07T05:05:57;0.40;99.90
45945;DHT22;31655;48.972;10.686;2023-12-07T05:08:23;0.40;99.90
45945;DHT22;31655;48.972;10.686;2023-12-07T05:10:48;0.40;99.90
45945;DHT22;31655;48.972;10.686;2023-12-07T05:13:14;0.40;99.90
45945;DHT22;31655;48.972;10.686;2023-12-07T05:15:40;0.40;99.90
45945;DHT22;31655;48.972;10.686;2023-12-07T05:18:05;0.40;99.90
45945;DHT22;31655;48.972;10.686;2023-12-07T05:20:31;0.30;99.90
45945;DHT22;31655;48.972;10.686;2023-12-07T05:22:56;0.30;99.90
45945;DHT22;31655;48.972;10.686;2023-12-07T05:25:22;0.30;99.90
45945;DHT22;31655;48.972;10.686;2023-12-07T05:27:47;0.30;99.90
45945;DHT22;31655;48.972;10.686;2023-12-07T05:30:14;0.20;99.90
45945;DHT22;31655;48.972;10.686;2023-12-07T05:32:41;0.30;99.90
45945;DHT22;31655;48.972;10.686;2023-12-07T05:35:07;0.20;99.90
45945;DHT22;31655;48.972;10.686;2023-12-07T05:37:33;0.30;99.90
45945;DHT22;31655;48.972;10.686;2023-12-07T05:39:58;0.40;99.90
45945;DHT22;31655;48.972;10.686;2023-12-07T05:42:24;0.50;99.90
45945;DHT22;31655;48.972;10.686;2023-12-07T05:44:49;0.50;99.90
45945;DHT22;31655;48.972;10.686;2023-12-07T05:47:15;0.50;99.90
45945;DHT22;31655;48.972;10.686;2023-12-07T05:49:40;0.50;99.90
45945;DHT22;31655;48.972;10.686;2023-12-07T05:52:06;0.60;99.90
45945;DHT22;31655;48.972;10.686;2023-12-07T05:54:31;0.60;99.90
45945;DHT22;31655;48.972;10.686;2023-12-07T05:56:57;0.60;99.90
45945;DHT22;31655;48.972;10.686;2023-12-07T05:59:22;0.60;99.90
45945;DHT22;31655;48.972;10.686;2023-12-07T06:01:51;0.60;99.90
45945;DHT22;31655;48.972;10.686;2023-12-07T06:04:17;0.60;99.90
45945;DHT22;31655;48.972;10.686;2023-12-07T06:06:42;0.70;99.90
45945;DHT22;31655;48.972;10.686;2023-12-07T06:09:08;0.60;99.90
45945;DHT22;31655;48.972;10.686;2023-12-07T06:11:33;0.60;99.90
45945;DHT22;31655;48.972;10.686;2023-12-07T06:14:00;0.50;99.90
45945;DHT22;31655;48.972;10.686;2023-12-07T06:16:26;0.60;99.90
45945;DHT22;31655;48.972;10.686;2023-12-07T06:18:51;0.60;99.90
45945;DHT22;31655;48.972;10.686;2023-12-07T06:21:17;0.60;99.90
45945;DHT22;31655;48.972;10.686;2023-12-07T06:23:42;0.50;99.90
45945;DHT22;31655;48.972;10.686;2023-12-07T06:26:08;0.50;99.90
45945;DHT22;31655;48.972;10.686;2023-12-07T06:28:34;0.50;99.90
45945;DHT22;31655;48.972;10.686;2023-12-07T06:31:07;0.60;99.90
45945;DHT22;31655;48.972;10.686;2023-12-07T06:33:33;0.60;99.90
45945;DHT22;31655;48.972;10.686;2023-12-07T06:36:00;0.60;99.90
45945;DHT22;31655;48.972;10.686;2023-12-07T06:38:28;0.60;99.90
45945;DHT22;31655;48.972;10.686;2023-12-07T06:40:54;0.70;99.90
45945;DHT22;31655;48.972;10.686;2023-12-07T06:43:19;0.70;99.90
45945;DHT22;31655;48.972;10.686;2023-12-07T06:45:45;0.80;99.90
45945;DHT22;31655;48.972;10.686;2023-12-07T06:48:12;0.80;99.90
45945;DHT22;31655;48.972;10.686;2023-12-07T06:50:39;0.70;99.90
45945;DHT22;31655;48.972;10.686;2023-12-07T06:53:04;0.70;99.90
45945;DHT22;31655;48.972;10.686;2023-12-07T06:55:30;0.70;99.90
45945;DHT22;31655;48.972;10.686;2023-12-07T06:57:55;0.80;99.90
45945;DHT22;31655;48.972;10.686;2023-12-07T07:00:21;0.80;99.90
45945;DHT22;31655;48.972;10.686;2023-12-07T07:02:47;0.70;99.90
45945;DHT22;31655;48.972;10.686;2023-12-07T07:05:12;0.80;99.90
45945;DHT22;31655;48.972;10.686;2023-12-07T07:07:38;0.80;99.90
45945;DHT22;31655;48.972;10.686;2023-12-07T07:10:04;0.80;99.90
45945;DHT22;31655;48.972;10.686;2023-12-07T07:12:30;0.80;99.90
45945;DHT22;31655;48.972;10.686;2023-12-07T07:14:56;0.80;99.90
45945;DHT22;31655;48.972;10.686;2023-12-07T07:17:21;0.90;99.90
45945;DHT22;31655;48.972;10.686;2023-12-07T07:19:47;0.90;99.90
45945;DHT22;31655;48.972;10.686;2023-12-07T07:22:12;0.90;99.90
45945;DHT22;31655;48.972;10.686;2023-12-07T07:24:38;1.00;99.90
45945;DHT22;31655;48.972;10.686;2023-12-07T07:27:04;1.00;99.90
45945;DHT22;31655;48.972;10.686;2023-12-07T07:29:30;1.00;99.90
45945;DHT22;31655;48.972;10.686;2023-12-07T07:31:57;1.10;99.90
45945;DHT22;31655;48.972;10.686;2023-12-07T07:34:23;1.10;99.90
45945;DHT22;31655;48.972;10.686;2023-12-07T07:36:49;1.10;99.90
45945;DHT22;31655;48.972;10.686;2023-12-07T07:39:15;1.20;99.90
45945;DHT22;31655;48.972;10.686;2023-12-07T07:41:41;1.30;99.90
45945;DHT22;31655;48.972;10.686;2023-12-07T07:44:06;1.30;99.90
45945;DHT22;31655;48.972;10.686;2023-12-07T07:46:32;1.40;99.90
45945;DHT22;31655;48.972;10.686;2023-12-07T07:48:58;1.40;99.90
45945;DHT22;31655;48.972;10.686;2023-12-07T07:51:23;1.30;99.90
45945;DHT22;31655;48.972;10.686;2023-12-07T07:53:49;1.40;99.90
45945;DHT22;31655;48.972;10.686;2023-12-07T07:56:15;1.40;99.90
45945;DHT22;31655;48.972;10.686;2023-12-07T07:58:40;1.40;99.90
45945;DHT22;31655;48.972;10.686;2023-12-07T08:01:06;1.40;99.90
45945;DHT22;31655;48.972;10.686;2023-12-07T08:03:32;1.40;99.90
45945;DHT22;31655;48.972;10.686;2023-12-07T08:05:57;1.40;99.90
45945;DHT22;31655;48.972;10.686;2023-12-07T08:08:23;1.40;99.90
45945;DHT22;31655;48.972;10.686;2023-12-07T08:10:51;1.40;99.90
45945;DHT22;31655;48.972;10.686;2023-12-07T08:13:17;1.50;99.90
45945;DHT22;31655;48.972;10.686;2023-12-07T08:15:42;1.60;99.90
45945;DHT22;31655;48.972;10.686;2023-12-07T08:18:08;1.70;99.90
45945;DHT22;31655;48.972;10.686;2023-12-07T08:20:34;1.80;99.90
45945;DHT22;31655;48.972;10.686;2023-12-07T08:23:00;1.70;99.90
45945;DHT22;31655;48.972;10.686;2023-12-07T08:25:25;1.80;99.90
45945;DHT22;31655;48.972;10.686;2023-12-07T08:27:51;1.90;99.90
45945;DHT22;31655;48.972;10.686;2023-12-07T08:30:16;2.00;99.90
45945;DHT22;31655;48.972;10.686;2023-12-07T08:32:44;2.10;99.90
45945;DHT22;31655;48.972;10.686;2023-12-07T08:35:09;2.20;99.90
45945;DHT22;31655;48.972;10.686;2023-12-07T08:37:37;2.20;99.90
45945;DHT22;31655;48.972;10.686;2023-12-07T08:40:03;2.30;99.90
45945;DHT22;31655;48.972;10.686;2023-12-07T08:42:29;2.40;99.90
45945;DHT22;31655;48.972;10.686;2023-12-07T08:44:56;2.40;99.90
45945;DHT22;31655;48.972;10.686;2023-12-07T08:47:22;2.50;99.90
45945;DHT22;31655;48.972;10.686;2023-12-07T08:49:48;2.60;99.90
45945;DHT22;31655;48.972;10.686;2023-12-07T08:52:13;2.70;99.90
45945;DHT22;31655;48.972;10.686;2023-12-07T08:54:39;2.60;99.90
45945;DHT22;31655;48.972;10.686;2023-12-07T08:57:04;2.80;99.90
45945;DHT22;31655;48.972;10.686;2023-12-07T08:59:30;2.90;99.90
45945;DHT22;31655;48.972;10.686;2023-12-07T09:01:56;3.10;99.90
45945;DHT22;31655;48.972;10.686;2023-12-07T09:04:22;3.60;99.90
45945;DHT22;31655;48.972;10.686;2023-12-07T09:06:47;4.30;99.90
45945;DHT22;31655;48.972;10.686;2023-12-07T09:09:13;4.60;99.90
45945;DHT22;31655;48.972;10.686;2023-12-07T09:11:38;4.60;99.90
45945;DHT22;31655;48.972;10.686;2023-12-07T09:14:04;5.00;99.90
45945;DHT22;31655;48.972;10.686;2023-12-07T09:16:29;4.10;99.90
45945;DHT22;31655;48.972;10.686;2023-12-07T09:18:55;4.20;99.90
45945;DHT22;31655;48.972;10.686;2023-12-07T09:21:21;4.20;99.90
45945;DHT22;31655;48.972;10.686;2023-12-07T09:23:46;4.00;99.90
45945;DHT22;31655;48.972;10.686;2023-12-07T09:26:12;3.90;99.90
45945;DHT22;31655;48.972;10.686;2023-12-07T09:28:37;3.90;99.90
45945;DHT22;31655;48.972;10.686;2023-12-07T09:31:05;3.90;99.90
45945;DHT22;31655;48.972;10.686;2023-12-07T09:33:30;4.20;99.90
45945;DHT22;31655;48.972;10.686;2023-12-07T09:35:56;4.50;99.90
45945;DHT22;31655;48.972;10.686;2023-12-07T09:38:21;4.80;99.90
45945;DHT22;31655;48.972;10.686;2023-12-07T09:40:50;5.00;99.90
45945;DHT22;31655;48.972;10.686;2023-12-07T09:43:17;5.30;99.90
45945;DHT22;31655;48.972;10.686;2023-12-07T09:45:44;5.40;99.90
45945;DHT22;31655;48.972;10.686;2023-12-07T09:48:10;5.30;99.90
45945;DHT22;31655;48.972;10.686;2023-12-07T09:50:36;5.00;99.90
45945;DHT22;31655;48.972;10.686;2023-12-07T09:53:02;4.80;99.90
45945;DHT22;31655;48.972;10.686;2023-12-07T09:55:28;4.70;99.90
45945;DHT22;31655;48.972;10.686;2023-12-07T09:57:53;4.50;99.90
45945;DHT22;31655;48.972;10.686;2023-12-07T10:00:22;4.90;99.90
45945;DHT22;31655;48.972;10.686;2023-12-07T10:02:48;6.20;99.90
45945;DHT22;31655;48.972;10.686;2023-12-07T10:05:14;5.90;99.90
45945;DHT22;31655;48.972;10.686;2023-12-07T10:07:43;5.70;99.90
45945;DHT22;31655;48.972;10.686;2023-12-07T10:10:09;5.00;99.90
45945;DHT22;31655;48.972;10.686;2023-12-07T10:12:50;4.40;99.90
45945;DHT22;31655;48.972;10.686;2023-12-07T10:15:17;4.30;99.90
45945;DHT22;31655;48.972;10.686;2023-12-07T10:17:58;4.10;99.90
45945;DHT22;31655;48.972;10.686;2023-12-07T10:20:28;4.00;99.90
45945;DHT22;31655;48.972;10.686;2023-12-07T10:23:04;3.50;99.90
45945;DHT22;31655;48.972;10.686;2023-12-07T10:25:31;3.50;99.90
45945;DHT22;31655;48.972;10.686;2023-12-07T10:27:57;3.40;99.90
45945;DHT22;31655;48.972;10.686;2023-12-07T10:30:22;3.50;99.90
45945;DHT22;31655;48.972;10.686;2023-12-07T10:32:51;3.50;99.90
45945;DHT22;31655;48.972;10.686;2023-12-07T10:35:18;3.50;99.90
45945;DHT22;31655;48.972;10.686;2023-12-07T10:37:45;3.40;99.90
45945;DHT22;31655;48.972;10.686;2023-12-07T10:40:10;3.30;99.90
45945;DHT22;31655;48.972;10.686;2023-12-07T10:42:37;3.20;99.90
45945;DHT22;31655;48.972;10.686;2023-12-07T10:45:06;3.30;99.90
45945;DHT22;31655;48.972;10.686;2023-12-07T10:47:37;3.40;99.90
45945;DHT22;31655;48.972;10.686;2023-12-07T10:50:05;3.40;99.90
45945;DHT22;31655;48.972;10.686;2023-12-07T10:52:38;3.20;99.90
45945;DHT22;31655;48.972;10.686;2023-12-07T10:55:13;3.50;99.90
45945;DHT22;31655;48.972;10.686;2023-12-07T10:57:40;3.70;99.90
45945;DHT22;31655;48.972;10.686;2023-12-07T11:00:08;3.80;99.90
45945;DHT22;31655;48.972;10.686;2023-12-07T11:02:35;3.90;99.90
45945;DHT22;31655;48.972;10.686;2023-12-07T11:05:02;4.20;99.90
45945;DHT22;31655;48.972;10.686;2023-12-07T11:07:48;4.50;99.90
45945;DHT22;31655;48.972;10.686;2023-12-07T11:10:24;4.90;99.90
45945;DHT22;31655;48.972;10.686;2023-12-07T11:12:56;5.30;99.90
45945;DHT22;31655;48.972;10.686;2023-12-07T11:15:23;5.40;99.90
45945;DHT22;31655;48.972;10.686;2023-12-07T11:17:54;5.10;99.90
45945;DHT22;31655;48.972;10.686;2023-12-07T11:20:21;5.00;99.90
45945;DHT22;31655;48.972;10.686;2023-12-07T11:22:47;5.10;99.90
45945;DHT22;31655;48.972;10.686;2023-12-07T11:25:15;4.70;99.90
45945;DHT22;31655;48.972;10.686;2023-12-07T11:27:40;4.60;99.90
45945;DHT22;31655;48.972;10.686;2023-12-07T11:30:13;4.60;99.90
45945;DHT22;31655;48.972;10.686;2023-12-07T11:32:39;4.50;99.90
45945;DHT22;31655;48.972;10.686;2023-12-07T11:35:05;4.60;99.90
45945;DHT22;31655;48.972;10.686;2023-12-07T11:38:00;4.40;99.90
45945;DHT22;31655;48.972;10.686;2023-12-07T11:40:25;4.20;99.90
45945;DHT22;31655;48.972;10.686;2023-12-07T11:42:52;4.20;99.90
45945;DHT22;31655;48.972;10.686;2023-12-07T11:45:48;4.20;99.90
45945;DHT22;31655;48.972;10.686;2023-12-07T11:48:15;4.00;99.90
45945;DHT22;31655;48.972;10.686;2023-12-07T11:53:32;3.90;99.90
45945;DHT22;31655;48.972;10.686;2023-12-07T11:55:59;4.00;99.90
45945;DHT22;31655;48.972;10.686;2023-12-07T11:58:25;3.80;99.90
45945;DHT22;31655;48.972;10.686;2023-12-07T12:00:52;3.70;99.90
45945;DHT22;31655;48.972;10.686;2023-12-07T12:03:19;3.80;99.90
45945;DHT22;31655;48.972;10.686;2023-12-07T12:05:45;3.70;99.90
45945;DHT22;31655;48.972;10.686;2023-12-07T12:08:11;3.90;99.90
45945;DHT22;31655;48.972;10.686;2023-12-07T12:10:38;3.90;99.90
45945;DHT22;31655;48.972;10.686;2023-12-07T12:13:04;3.90;99.90
45945;DHT22;31655;48.972;10.686;2023-12-07T12:15:30;4.00;99.90
45945;DHT22;31655;48.972;10.686;2023-12-07T12:17:59;3.90;99.90
45945;DHT22;31655;48.972;10.686;2023-12-07T12:20:25;3.80;99.90
45945;DHT22;31655;48.972;10.686;2023-12-07T12:22:51;3.60;99.90
45945;DHT22;31655;48.972;10.686;2023-12-07T12:25:24;3.40;99.90
45945;DHT22;31655;48.972;10.686;2023-12-07T12:27:52;3.20;99.90
45945;DHT22;31655;48.972;10.686;2023-12-07T12:30:19;3.10;99.90
45945;DHT22;31655;48.972;10.686;2023-12-07T12:32:46;3.10;99.90
45945;DHT22;31655;48.972;10.686;2023-12-07T12:35:12;3.10;99.90
45945;DHT22;31655;48.972;10.686;2023-12-07T12:37:43;3.00;99.90
45945;DHT22;31655;48.972;10.686;2023-12-07T12:40:14;3.00;99.90
45945;DHT22;31655;48.972;10.686;2023-12-07T12:42:42;3.10;99.90
45945;DHT22;31655;48.972;10.686;2023-12-07T12:45:09;3.30;99.90
45945;DHT22;31655;48.972;10.686;2023-12-07T12:47:36;3.30;99.90
45945;DHT22;31655;48.972;10.686;2023-12-07T12:50:02;3.40;99.90
45945;DHT22;31655;48.972;10.686;2023-12-07T12:52:30;3.50;99.90
45945;DHT22;31655;48.972;10.686;2023-12-07T12:54:56;3.30;99.90
45945;DHT22;31655;48.972;10.686;2023-12-07T12:57:23;3.30;99.90
45945;DHT22;31655;48.972;10.686;2023-12-07T12:59:50;3.30;99.90
45945;DHT22;31655;48.972;10.686;2023-12-07T13:02:15;3.10;99.90
45945;DHT22;31655;48.972;10.686;2023-12-07T13:04:41;3.10;99.90
45945;DHT22;31655;48.972;10.686;2023-12-07T13:07:07;3.00;99.90
45945;DHT22;31655;48.972;10.686;2023-12-07T13:09:32;3.00;99.90
45945;DHT22;31655;48.972;10.686;2023-12-07T13:12:01;3.00;99.90
45945;DHT22;31655;48.972;10.686;2023-12-07T13:14:27;3.00;99.90
45945;DHT22;31655;48.972;10.686;2023-12-07T13:16:52;2.90;99.90
45945;DHT22;31655;48.972;10.686;2023-12-07T13:19:18;2.90;99.90
45945;DHT22;31655;48.972;10.686;2023-12-07T13:21:45;3.00;99.90
45945;DHT22;31655;48.972;10.686;2023-12-07T13:24:11;3.00;99.90
45945;DHT22;31655;48.972;10.686;2023-12-07T13:26:39;2.90;99.90
45945;DHT22;31655;48.972;10.686;2023-12-07T13:29:05;2.80;99.90
45945;DHT22;31655;48.972;10.686;2023-12-07T13:31:30;2.80;99.90
45945;DHT22;31655;48.972;10.686;2023-12-07T13:33:56;3.10;99.90
45945;DHT22;31655;48.972;10.686;2023-12-07T13:36:22;2.80;99.90
45945;DHT22;31655;48.972;10.686;2023-12-07T13:38:51;2.80;99.90
45945;DHT22;31655;48.972;10.686;2023-12-07T13:41:16;2.80;99.90
45945;DHT22;31655;48.972;10.686;2023-12-07T13:43:42;2.80;99.90
45945;DHT22;31655;48.972;10.686;2023-12-07T13:46:08;2.80;99.90
45945;DHT22;31655;48.972;10.686;2023-12-07T13:48:34;5.00;99.90
45945;DHT22;31655;48.972;10.686;2023-12-07T13:50:59;2.70;99.90
45945;DHT22;31655;48.972;10.686;2023-12-07T13:53:25;2.70;99.90
45945;DHT22;31655;48.972;10.686;2023-12-07T13:55:51;2.70;99.90
45945;DHT22;31655;48.972;10.686;2023-12-07T13:58:17;2.70;99.90
45945;DHT22;31655;48.972;10.686;2023-12-07T14:00:43;2.60;99.90
45945;DHT22;31655;48.972;10.686;2023-12-07T14:03:13;2.50;99.90
45945;DHT22;31655;48.972;10.686;2023-12-07T14:05:38;2.50;99.90
45945;DHT22;31655;48.972;10.686;2023-12-07T14:08:07;2.40;99.90
45945;DHT22;31655;48.972;10.686;2023-12-07T14:10:33;2.50;99.90
45945;DHT22;31655;48.972;10.686;2023-12-07T14:13:00;2.40;99.90
45945;DHT22;31655;48.972;10.686;2023-12-07T14:17:54;2.00;99.90
45945;DHT22;31655;48.972;10.686;2023-12-07T14:20:22;1.80;99.90
45945;DHT22;31655;48.972;10.686;2023-12-07T14:22:50;1.80;99.90
45945;DHT22;31655;48.972;10.686;2023-12-07T14:25:16;1.60;99.90
45945;DHT22;31655;48.972;10.686;2023-12-07T14:27:43;1.60;99.90
45945;DHT22;31655;48.972;10.686;2023-12-07T14:30:10;1.40;99.90
45945;DHT22;31655;48.972;10.686;2023-12-07T14:32:37;1.40;99.90
45945;DHT22;31655;48.972;10.686;2023-12-07T14:35:03;1.40;99.90
45945;DHT22;31655;48.972;10.686;2023-12-07T14:37:29;1.30;99.90
45945;DHT22;31655;48.972;10.686;2023-12-07T14:39:55;1.20;99.90
45945;DHT22;31655;48.972;10.686;2023-12-07T14:42:21;4.10;99.90
45945;DHT22;31655;48.972;10.686;2023-12-07T14:44:47;1.10;99.90
45945;DHT22;31655;48.972;10.686;2023-12-07T14:47:13;1.10;99.90
45945;DHT22;31655;48.972;10.686;2023-12-07T14:49:39;0.90;99.90
45945;DHT22;31655;48.972;10.686;2023-12-07T14:52:06;0.90;99.90
45945;DHT22;31655;48.972;10.686;2023-12-07T14:54:32;0.90;99.90
45945;DHT22;31655;48.972;10.686;2023-12-07T14:57:01;0.90;99.90
45945;DHT22;31655;48.972;10.686;2023-12-07T14:59:29;0.70;99.90
45945;DHT22;31655;48.972;10.686;2023-12-07T15:01:54;0.80;99.90
45945;DHT22;31655;48.972;10.686;2023-12-07T15:04:20;0.70;99.90
45945;DHT22;31655;48.972;10.686;2023-12-07T15:06:46;1.80;99.90
45945;DHT22;31655;48.972;10.686;2023-12-07T15:09:12;0.40;99.90
45945;DHT22;31655;48.972;10.686;2023-12-07T15:11:38;0.50;99.90
45945;DHT22;31655;48.972;10.686;2023-12-07T15:14:05;0.20;99.90
45945;DHT22;31655;48.972;10.686;2023-12-07T15:16:31;0.30;99.90
45945;DHT22;31655;48.972;10.686;2023-12-07T15:18:57;0.10;99.90
45945;DHT22;31655;48.972;10.686;2023-12-07T15:21:23;0.20;99.90
45945;DHT22;31655;48.972;10.686;2023-12-07T15:23:49;-0.10;99.90
45945;DHT22;31655;48.972;10.686;2023-12-07T15:26:15;-0.40;99.90
45945;DHT22;31655;48.972;10.686;2023-12-07T15:28:42;-0.20;99.90
45945;DHT22;31655;48.972;10.686;2023-12-07T15:31:07;-0.20;99.90
45945;DHT22;31655;48.972;10.686;2023-12-07T15:33:41;-0.20;99.90
45945;DHT22;31655;48.972;10.686;2023-12-07T15:38:41;-0.40;99.90